Aviation Digital Data Service (ADDS)

Output produced by TAFs form (0736 UTC 16 January 2018)
found at http://www.aviationweather.gov/adds/tafs/
 
KDLH 160714Z 1607/1706 34008KT P6SM FEW070 
     TEMPO 1608/1610 5SM -SN OVC020 
     FM161000 33010KT P6SM BKN020 
     FM161600 31008KT P6SM SCT020 
     FM162100 28009KT P6SM SCT100 BKN150 
     FM170000 26010KT P6SM BKN080